sensor_id;sensor_type;location;lat;lon;timestamp;pressure;altitude;pressure_sealevel;temperature;humidity
78741;BME280;68062;48.726;9.370;2023-02-25T00:00:45;97598.97;;;7.23;87.88
78741;BME280;68062;48.726;9.370;2023-02-25T00:03:12;97579.47;;;7.10;87.75
78741;BME280;68062;48.726;9.370;2023-02-25T00:05:40;97600.75;;;7.13;87.48
78741;BME280;68062;48.726;9.370;2023-02-25T00:08:07;97595.59;;;7.19;87.86
78741;BME280;68062;48.726;9.370;2023-02-25T00:10:34;97595.53;;;7.27;89.26
78741;BME280;68062;48.726;9.370;2023-02-25T00:13:03;97589.56;;;7.30;89.29
78741;BME280;68062;48.726;9.370;2023-02-25T00:15:29;97573.44;;;7.17;89.88
78741;BME280;68062;48.726;9.370;2023-02-25T00:17:55;97596.34;;;7.37;90.12
78741;BME280;68062;48.726;9.370;2023-02-25T00:20:22;97598.88;;;7.40;90.66
78741;BME280;68062;48.726;9.370;2023-02-25T00:22:49;97598.00;;;7.40;88.86
78741;BME280;68062;48.726;9.370;2023-02-25T00:25:15;97595.50;;;7.35;88.99
78741;BME280;68062;48.726;9.370;2023-02-25T00:27:42;97581.03;;;7.31;89.80
78741;BME280;68062;48.726;9.370;2023-02-25T00:30:12;97577.69;;;7.21;90.17
78741;BME280;68062;48.726;9.370;2023-02-25T00:32:39;97581.88;;;7.28;87.65
78741;BME280;68062;48.726;9.370;2023-02-25T00:35:06;97581.91;;;7.25;88.75
78741;BME280;68062;48.726;9.370;2023-02-25T00:37:37;97587.88;;;7.27;89.35
78741;BME280;68062;48.726;9.370;2023-02-25T00:40:05;97583.59;;;7.29;88.52
78741;BME280;68062;48.726;9.370;2023-02-25T00:42:33;97593.84;;;7.26;87.91
78741;BME280;68062;48.726;9.370;2023-02-25T00:44:59;97593.00;;;7.24;87.91
78741;BME280;68062;48.726;9.370;2023-02-25T00:47:27;97596.41;;;7.23;87.78
78741;BME280;68062;48.726;9.370;2023-02-25T00:49:53;97614.34;;;7.20;87.72
78741;BME280;68062;48.726;9.370;2023-02-25T00:52:20;97607.53;;;7.20;88.27
78741;BME280;68062;48.726;9.370;2023-02-25T00:54:47;97604.13;;;7.17;88.44
78741;BME280;68062;48.726;9.370;2023-02-25T00:57:13;97589.69;;;7.14;88.35
78741;BME280;68062;48.726;9.370;2023-02-25T00:59:39;97602.41;;;7.20;88.89
78741;BME280;68062;48.726;9.370;2023-02-25T01:02:06;97597.31;;;7.17;88.58
78741;BME280;68062;48.726;9.370;2023-02-25T01:04:34;97604.97;;;7.24;89.09
78741;BME280;68062;48.726;9.370;2023-02-25T01:07:00;97610.22;;;7.02;89.83
78741;BME280;68062;48.726;9.370;2023-02-25T01:09:27;97611.91;;;7.03;89.80
78741;BME280;68062;48.726;9.370;2023-02-25T01:11:54;97615.25;;;7.13;88.10
78741;BME280;68062;48.726;9.370;2023-02-25T01:14:23;97616.06;;;7.19;88.41
78741;BME280;68062;48.726;9.370;2023-02-25T01:16:51;97621.13;;;7.24;89.08
78741;BME280;68062;48.726;9.370;2023-02-25T01:19:22;97618.63;;;7.18;88.80
78741;BME280;68062;48.726;9.370;2023-02-25T01:21:52;97611.00;;;7.13;89.40
78741;BME280;68062;48.726;9.370;2023-02-25T01:24:21;97610.91;;;7.24;89.39
78741;BME280;68062;48.726;9.370;2023-02-25T01:26:51;97615.25;;;7.10;86.76
78741;BME280;68062;48.726;9.370;2023-02-25T01:29:19;97610.19;;;7.00;84.77
78741;BME280;68062;48.726;9.370;2023-02-25T01:31:46;97613.72;;;6.77;84.90
78741;BME280;68062;48.726;9.370;2023-02-25T01:34:16;97624.78;;;6.84;84.41
78741;BME280;68062;48.726;9.370;2023-02-25T01:36:44;97617.09;;;6.86;84.41
78741;BME280;68062;48.726;9.370;2023-02-25T01:39:13;97626.53;;;6.76;81.28
78741;BME280;68062;48.726;9.370;2023-02-25T01:41:40;97639.50;;;6.25;81.55
78741;BME280;68062;48.726;9.370;2023-02-25T01:44:09;97650.56;;;5.54;83.96
78741;BME280;68062;48.726;9.370;2023-02-25T01:46:37;97656.53;;;5.65;84.01
78741;BME280;68062;48.726;9.370;2023-02-25T01:49:08;97654.00;;;5.64;84.39
78741;BME280;68062;48.726;9.370;2023-02-25T01:51:36;97659.84;;;5.04;86.17
78741;BME280;68062;48.726;9.370;2023-02-25T01:54:04;97643.75;;;5.37;84.55
78741;BME280;68062;48.726;9.370;2023-02-25T01:56:35;97638.69;;;5.39;84.07
78741;BME280;68062;48.726;9.370;2023-02-25T01:59:04;97636.94;;;5.10;84.72
78741;BME280;68062;48.726;9.370;2023-02-25T02:01:32;97630.16;;;5.35;83.53
78741;BME280;68062;48.726;9.370;2023-02-25T02:04:02;97629.31;;;5.42;82.95
78741;BME280;68062;48.726;9.370;2023-02-25T02:06:32;97632.69;;;5.18;81.21
78741;BME280;68062;48.726;9.370;2023-02-25T02:09:00;97630.91;;;4.75;84.57
78741;BME280;68062;48.726;9.370;2023-02-25T02:11:28;97614.84;;;5.32;83.75
78741;BME280;68062;48.726;9.370;2023-02-25T02:13:57;97621.69;;;5.66;81.92
78741;BME280;68062;48.726;9.370;2023-02-25T02:16:39;97625.94;;;5.76;81.80
78741;BME280;68062;48.726;9.370;2023-02-25T02:19:19;97630.16;;;5.69;80.92
78741;BME280;68062;48.726;9.370;2023-02-25T02:21:58;97636.13;;;5.81;82.03
78741;BME280;68062;48.726;9.370;2023-02-25T02:27:43;97648.88;;;5.79;81.63
78741;BME280;68062;48.726;9.370;2023-02-25T02:30:36;97637.00;;;5.53;81.41
78741;BME280;68062;48.726;9.370;2023-02-25T02:33:10;97657.31;;;5.10;83.87
78741;BME280;68062;48.726;9.370;2023-02-25T02:35:48;97659.91;;;5.42;82.61
78741;BME280;68062;48.726;9.370;2023-02-25T02:38:21;97661.63;;;5.22;81.89
78741;BME280;68062;48.726;9.370;2023-02-25T02:40:55;97655.59;;;4.96;81.11
78741;BME280;68062;48.726;9.370;2023-02-25T02:43:35;97640.31;;;5.03;81.68
78741;BME280;68062;48.726;9.370;2023-02-25T02:46:07;97649.63;;;4.88;80.92
78741;BME280;68062;48.726;9.370;2023-02-25T02:48:41;97658.09;;;4.76;81.90
78741;BME280;68062;48.726;9.370;2023-02-25T02:51:13;97668.25;;;4.67;81.49
78741;BME280;68062;48.726;9.370;2023-02-25T02:53:43;97647.00;;;4.68;79.96
78741;BME280;68062;48.726;9.370;2023-02-25T02:56:13;97655.53;;;4.81;79.89
78741;BME280;68062;48.726;9.370;2023-02-25T02:58:46;97647.88;;;4.70;78.10
78741;BME280;68062;48.726;9.370;2023-02-25T03:01:16;97657.16;;;4.59;80.11
78741;BME280;68062;48.726;9.370;2023-02-25T03:03:47;97655.56;;;4.82;78.33
78741;BME280;68062;48.726;9.370;2023-02-25T03:06:18;97659.84;;;4.97;77.41
78741;BME280;68062;48.726;9.370;2023-02-25T03:08:48;97673.47;;;5.10;78.68
78741;BME280;68062;48.726;9.370;2023-02-25T03:11:20;97674.31;;;5.05;79.49
78741;BME280;68062;48.726;9.370;2023-02-25T03:13:47;97656.44;;;5.01;79.34
78741;BME280;68062;48.726;9.370;2023-02-25T03:16:18;97661.63;;;5.43;78.63
78741;BME280;68062;48.726;9.370;2023-02-25T03:18:52;97665.03;;;5.49;77.41
78741;BME280;68062;48.726;9.370;2023-02-25T03:21:25;97672.63;;;5.11;78.33
78741;BME280;68062;48.726;9.370;2023-02-25T03:23:56;97670.97;;;5.34;78.56
78741;BME280;68062;48.726;9.370;2023-02-25T03:26:27;97667.56;;;5.49;79.13
78741;BME280;68062;48.726;9.370;2023-02-25T03:28:54;97672.66;;;5.33;77.93
78741;BME280;68062;48.726;9.370;2023-02-25T03:31:24;97654.81;;;5.27;78.71
78741;BME280;68062;48.726;9.370;2023-02-25T03:33:56;97667.56;;;5.58;78.65
78741;BME280;68062;48.726;9.370;2023-02-25T03:36:26;97673.53;;;5.51;78.86
78741;BME280;68062;48.726;9.370;2023-02-25T03:38:57;97678.63;;;5.66;77.79
78741;BME280;68062;48.726;9.370;2023-02-25T03:41:34;97665.03;;;5.56;77.58
78741;BME280;68062;48.726;9.370;2023-02-25T03:44:05;97676.09;;;5.68;78.15
78741;BME280;68062;48.726;9.370;2023-02-25T03:46:33;97680.34;;;5.69;78.23
78741;BME280;68062;48.726;9.370;2023-02-25T03:49:03;97683.75;;;5.69;77.27
78741;BME280;68062;48.726;9.370;2023-02-25T03:51:36;97678.66;;;5.80;78.24
78741;BME280;68062;48.726;9.370;2023-02-25T03:54:04;97683.75;;;5.62;77.04
78741;BME280;68062;48.726;9.370;2023-02-25T03:56:40;97688.00;;;5.56;78.13
78741;BME280;68062;48.726;9.370;2023-02-25T03:59:06;97689.66;;;5.34;79.00
78741;BME280;68062;48.726;9.370;2023-02-25T04:01:33;97675.22;;;5.24;78.99
78741;BME280;68062;48.726;9.370;2023-02-25T04:04:01;97690.53;;;5.64;78.57
78741;BME280;68062;48.726;9.370;2023-02-25T04:06:27;97690.44;;;5.04;78.72
78741;BME280;68062;48.726;9.370;2023-02-25T04:08:54;97706.56;;;4.95;80.32
78741;BME280;68062;48.726;9.370;2023-02-25T04:11:20;97690.50;;;5.33;79.19
78741;BME280;68062;48.726;9.370;2023-02-25T04:13:47;97717.66;;;5.06;82.37
78741;BME280;68062;48.726;9.370;2023-02-25T04:16:13;97722.84;;;5.60;80.72
78741;BME280;68062;48.726;9.370;2023-02-25T04:18:40;97718.59;;;5.59;78.23
78741;BME280;68062;48.726;9.370;2023-02-25T04:21:08;97718.56;;;5.30;74.97
78741;BME280;68062;48.726;9.370;2023-02-25T04:23:35;97730.28;;;4.83;77.20
78741;BME280;68062;48.726;9.370;2023-02-25T04:26:01;97723.59;;;5.16;77.24
78741;BME280;68062;48.726;9.370;2023-02-25T04:28:28;97725.34;;;5.34;75.79
78741;BME280;68062;48.726;9.370;2023-02-25T04:30:54;97727.09;;;5.49;75.99
78741;BME280;68062;48.726;9.370;2023-02-25T04:33:21;97722.00;;;5.63;75.33
78741;BME280;68062;48.726;9.370;2023-02-25T04:35:47;97722.78;;;5.20;74.53
78741;BME280;68062;48.726;9.370;2023-02-25T04:38:15;97727.81;;;5.08;75.19
78741;BME280;68062;48.726;9.370;2023-02-25T04:40:41;97712.59;;;5.31;74.69
78741;BME280;68062;48.726;9.370;2023-02-25T04:43:08;97720.25;;;5.26;74.56
78741;BME280;68062;48.726;9.370;2023-02-25T04:45:34;97731.31;;;5.32;73.47
78741;BME280;68062;48.726;9.370;2023-02-25T04:48:01;97688.63;;;4.71;73.35
78741;BME280;68062;48.726;9.370;2023-02-25T04:50:27;97733.78;;;5.05;73.62
78741;BME280;68062;48.726;9.370;2023-02-25T04:52:54;97737.19;;;5.07;72.49
78741;BME280;68062;48.726;9.370;2023-02-25T04:55:21;97730.34;;;4.98;72.91
78741;BME280;68062;48.726;9.370;2023-02-25T04:57:48;97728.75;;;5.33;72.52
78741;BME280;68062;48.726;9.370;2023-02-25T05:00:16;97738.84;;;5.04;72.00
78741;BME280;68062;48.726;9.370;2023-02-25T05:02:45;97739.41;;;4.45;73.35
78741;BME280;68062;48.726;9.370;2023-02-25T05:05:12;97728.41;;;4.51;72.07
78741;BME280;68062;48.726;9.370;2023-02-25T05:07:39;97741.34;;;4.88;73.63
78741;BME280;68062;48.726;9.370;2023-02-25T05:10:06;97744.69;;;4.76;71.71
78741;BME280;68062;48.726;9.370;2023-02-25T05:12:34;97743.03;;;4.86;72.62
78741;BME280;68062;48.726;9.370;2023-02-25T05:15:01;97726.00;;;4.74;70.75
78741;BME280;68062;48.726;9.370;2023-02-25T05:17:30;97745.41;;;4.55;72.63
78741;BME280;68062;48.726;9.370;2023-02-25T05:19:57;97742.88;;;4.53;73.34
78741;BME280;68062;48.726;9.370;2023-02-25T05:22:23;97742.91;;;4.63;72.44
78741;BME280;68062;48.726;9.370;2023-02-25T05:24:50;97744.72;;;4.84;71.70
78741;BME280;68062;48.726;9.370;2023-02-25T05:27:16;97741.34;;;4.86;71.69
78741;BME280;68062;48.726;9.370;2023-02-25T05:29:44;97738.75;;;4.77;72.70
78741;BME280;68062;48.726;9.370;2023-02-25T06:21:55;97763.75;;;4.10;69.36
78741;BME280;68062;48.726;9.370;2023-02-25T06:24:22;97762.34;;;4.48;70.19
78741;BME280;68062;48.726;9.370;2023-02-25T06:26:49;97772.63;;;4.61;69.38
78741;BME280;68062;48.726;9.370;2023-02-25T06:29:16;97766.84;;;4.90;67.58
78741;BME280;68062;48.726;9.370;2023-02-25T06:31:42;97777.03;;;4.94;67.30
78741;BME280;68062;48.726;9.370;2023-02-25T06:34:09;97782.84;;;4.71;67.20
78741;BME280;68062;48.726;9.370;2023-02-25T06:36:35;97787.16;;;4.82;67.46
78741;BME280;68062;48.726;9.370;2023-02-25T06:39:03;97789.69;;;4.77;68.11
78741;BME280;68062;48.726;9.370;2023-02-25T06:41:30;97788.84;;;4.75;66.84
78741;BME280;68062;48.726;9.370;2023-02-25T06:43:56;97793.13;;;4.87;67.32
78741;BME280;68062;48.726;9.370;2023-02-25T06:46:24;97786.22;;;4.66;67.52
78741;BME280;68062;48.726;9.370;2023-02-25T06:48:51;97782.88;;;4.70;67.41
78741;BME280;68062;48.726;9.370;2023-02-25T06:51:17;97769.19;;;4.60;68.57
78741;BME280;68062;48.726;9.370;2023-02-25T06:53:45;97768.50;;;4.86;67.80
78741;BME280;68062;48.726;9.370;2023-02-25T06:56:14;97776.19;;;4.94;66.58
78741;BME280;68062;48.726;9.370;2023-02-25T06:58:41;97760.91;;;4.91;66.06
78741;BME280;68062;48.726;9.370;2023-02-25T07:01:08;97775.22;;;4.71;67.65
78741;BME280;68062;48.726;9.370;2023-02-25T07:03:35;97795.72;;;4.93;67.63
78741;BME280;68062;48.726;9.370;2023-02-25T07:06:02;97796.63;;;5.05;67.51
78741;BME280;68062;48.726;9.370;2023-02-25T07:08:29;97791.41;;;4.83;68.06
78741;BME280;68062;48.726;9.370;2023-02-25T07:10:56;97794.94;;;5.05;67.57
78741;BME280;68062;48.726;9.370;2023-02-25T07:13:35;97800.81;;;4.96;66.18
78741;BME280;68062;48.726;9.370;2023-02-25T07:16:02;97796.28;;;4.49;67.31
78741;BME280;68062;48.726;9.370;2023-02-25T07:18:28;97796.38;;;4.61;66.95
78741;BME280;68062;48.726;9.370;2023-02-25T07:20:56;97792.16;;;4.65;66.67
78741;BME280;68062;48.726;9.370;2023-02-25T07:23:22;97796.34;;;4.55;68.26
78741;BME280;68062;48.726;9.370;2023-02-25T07:25:49;97787.94;;;4.71;68.69
78741;BME280;68062;48.726;9.370;2023-02-25T07:28:15;97794.72;;;4.69;67.51
78741;BME280;68062;48.726;9.370;2023-02-25T07:30:43;97792.28;;;4.83;68.02
78741;BME280;68062;48.726;9.370;2023-02-25T07:33:09;97797.28;;;4.69;68.14
78741;BME280;68062;48.726;9.370;2023-02-25T07:35:36;97795.75;;;5.03;68.61
78741;BME280;68062;48.726;9.370;2023-02-25T07:38:02;97805.94;;;4.95;67.86
78741;BME280;68062;48.726;9.370;2023-02-25T07:40:29;97797.44;;;5.00;67.06
78741;BME280;68062;48.726;9.370;2023-02-25T07:42:55;97803.44;;;5.07;67.26
78741;BME280;68062;48.726;9.370;2023-02-25T07:45:21;97796.69;;;5.23;68.52
78741;BME280;68062;48.726;9.370;2023-02-25T07:47:52;97795.00;;;5.19;70.95
78741;BME280;68062;48.726;9.370;2023-02-25T07:50:19;97789.97;;;5.42;70.02
78741;BME280;68062;48.726;9.370;2023-02-25T07:52:45;97798.44;;;5.34;68.41
78741;BME280;68062;48.726;9.370;2023-02-25T07:55:12;97793.41;;;5.49;66.78
78741;BME280;68062;48.726;9.370;2023-02-25T07:57:38;97788.13;;;5.06;66.27
78741;BME280;68062;48.726;9.370;2023-02-25T08:00:06;97789.00;;;5.03;65.13
78741;BME280;68062;48.726;9.370;2023-02-25T08:02:34;97804.00;;;4.56;64.93
78741;BME280;68062;48.726;9.370;2023-02-25T08:05:02;97790.31;;;4.44;65.62
78741;BME280;68062;48.726;9.370;2023-02-25T08:07:29;97791.88;;;4.24;65.94
78741;BME280;68062;48.726;9.370;2023-02-25T08:09:56;97788.59;;;4.38;66.03
78741;BME280;68062;48.726;9.370;2023-02-25T08:12:22;97799.53;;;4.29;66.68
78741;BME280;68062;48.726;9.370;2023-02-25T08:14:48;97792.81;;;4.37;66.23
78741;BME280;68062;48.726;9.370;2023-02-25T08:17:15;97808.78;;;4.18;66.81
78741;BME280;68062;48.726;9.370;2023-02-25T08:19:42;97812.84;;;3.95;66.34
78741;BME280;68062;48.726;9.370;2023-02-25T08:22:10;97794.97;;;3.88;66.21
78741;BME280;68062;48.726;9.370;2023-02-25T08:24:36;97801.16;;;4.16;66.65
78741;BME280;68062;48.726;9.370;2023-02-25T08:27:03;97803.66;;;4.15;66.19
78741;BME280;68062;48.726;9.370;2023-02-25T08:29:31;97800.44;;;4.34;65.01
78741;BME280;68062;48.726;9.370;2023-02-25T08:31:58;97821.53;;;4.21;65.54
78741;BME280;68062;48.726;9.370;2023-02-25T08:34:24;97824.97;;;4.26;65.61
78741;BME280;68062;48.726;9.370;2023-02-25T08:36:51;97813.91;;;4.21;66.49
78741;BME280;68062;48.726;9.370;2023-02-25T08:39:18;97818.13;;;4.19;66.18
78741;BME280;68062;48.726;9.370;2023-02-25T08:41:45;97812.47;;;4.57;64.50
78741;BME280;68062;48.726;9.370;2023-02-25T08:44:11;97812.47;;;4.55;64.20
78741;BME280;68062;48.726;9.370;2023-02-25T08:46:38;97803.91;;;4.44;62.79
78741;BME280;68062;48.726;9.370;2023-02-25T08:49:05;97804.81;;;4.52;64.78
78741;BME280;68062;48.726;9.370;2023-02-25T08:51:32;97795.72;;;4.93;63.46
78741;BME280;68062;48.726;9.370;2023-02-25T08:54:00;97785.56;;;5.03;60.24
78741;BME280;68062;48.726;9.370;2023-02-25T08:56:28;97799.72;;;4.54;60.36
78741;BME280;68062;48.726;9.370;2023-02-25T08:58:55;97798.94;;;4.64;61.91
78741;BME280;68062;48.726;9.370;2023-02-25T09:01:22;97797.13;;;4.48;60.94
78741;BME280;68062;48.726;9.370;2023-02-25T09:03:49;97792.91;;;4.48;61.73
78741;BME280;68062;48.726;9.370;2023-02-25T09:06:20;97783.72;;;4.77;61.28
78741;BME280;68062;48.726;9.370;2023-02-25T09:08:46;97799.09;;;4.88;60.50
78741;BME280;68062;48.726;9.370;2023-02-25T09:11:13;97809.28;;;4.84;61.06
78741;BME280;68062;48.726;9.370;2023-02-25T09:13:41;97804.19;;;4.92;61.16
78741;BME280;68062;48.726;9.370;2023-02-25T09:16:08;97788.88;;;4.86;61.14
78741;BME280;68062;48.726;9.370;2023-02-25T09:18:34;97809.38;;;5.03;62.46
78741;BME280;68062;48.726;9.370;2023-02-25T09:21:01;97806.00;;;5.15;61.36
78741;BME280;68062;48.726;9.370;2023-02-25T09:23:28;97805.28;;;5.45;59.98
78741;BME280;68062;48.726;9.370;2023-02-25T09:25:54;97801.78;;;5.12;59.81
78741;BME280;68062;48.726;9.370;2023-02-25T09:28:21;97795.72;;;4.92;61.01
78741;BME280;68062;48.726;9.370;2023-02-25T09:30:48;97795.81;;;5.12;60.94
78741;BME280;68062;48.726;9.370;2023-02-25T09:33:15;97800.16;;;5.35;60.69
78741;BME280;68062;48.726;9.370;2023-02-25T09:35:42;97797.66;;;5.56;60.52
78741;BME280;68062;48.726;9.370;2023-02-25T09:38:09;97792.56;;;5.67;59.62
78741;BME280;68062;48.726;9.370;2023-02-25T09:40:37;97793.38;;;5.51;58.18
78741;BME280;68062;48.726;9.370;2023-02-25T09:43:09;97796.75;;;5.43;59.06
78741;BME280;68062;48.726;9.370;2023-02-25T09:45:41;97791.63;;;5.34;59.27
78741;BME280;68062;48.726;9.370;2023-02-25T09:48:16;97782.38;;;5.63;59.71
78741;BME280;68062;48.726;9.370;2023-02-25T09:50:45;97782.38;;;5.63;58.74
78741;BME280;68062;48.726;9.370;2023-02-25T09:53:18;97765.34;;;5.46;57.86
78741;BME280;68062;48.726;9.370;2023-02-25T09:55:48;97768.63;;;5.14;56.33
78741;BME280;68062;48.726;9.370;2023-02-25T09:58:20;97786.53;;;5.33;57.51
78741;BME280;68062;48.726;9.370;2023-02-25T10:00:55;97783.13;;;5.24;56.60
78741;BME280;68062;48.726;9.370;2023-02-25T10:03:39;97783.06;;;5.15;57.36
78741;BME280;68062;48.726;9.370;2023-02-25T10:06:10;97782.28;;;5.36;56.68
78741;BME280;68062;48.726;9.370;2023-02-25T10:08:43;97747.50;;;5.69;57.11
78741;BME280;68062;48.726;9.370;2023-02-25T10:11:15;97779.00;;;5.96;55.22
78741;BME280;68062;48.726;9.370;2023-02-25T10:13:50;97777.28;;;5.70;55.44
78741;BME280;68062;48.726;9.370;2023-02-25T10:16:32;97763.69;;;5.67;54.15
78741;BME280;68062;48.726;9.370;2023-02-25T10:19:12;97761.22;;;6.13;54.11
78741;BME280;68062;48.726;9.370;2023-02-25T10:21:53;97773.06;;;5.77;54.68
78741;BME280;68062;48.726;9.370;2023-02-25T10:24:29;97781.47;;;5.39;49.95
78741;BME280;68062;48.726;9.370;2023-02-25T10:27:08;97783.09;;;5.18;51.47
78741;BME280;68062;48.726;9.370;2023-02-25T10:29:44;97775.53;;;5.49;51.23
78741;BME280;68062;48.726;9.370;2023-02-25T10:32:20;97777.19;;;5.24;51.17
78741;BME280;68062;48.726;9.370;2023-02-25T10:34:49;97773.75;;;5.17;52.77
78741;BME280;68062;48.726;9.370;2023-02-25T10:37:20;97783.16;;;5.44;52.75
78741;BME280;68062;48.726;9.370;2023-02-25T10:39:55;97789.94;;;5.28;52.79
78741;BME280;68062;48.726;9.370;2023-02-25T10:42:22;97773.78;;;5.22;53.75
78741;BME280;68062;48.726;9.370;2023-02-25T10:44:49;97781.44;;;5.37;53.48
78741;BME280;68062;48.726;9.370;2023-02-25T10:47:29;97778.03;;;5.38;53.85
78741;BME280;68062;48.726;9.370;2023-02-25T10:50:27;97760.22;;;5.41;54.56
78741;BME280;68062;48.726;9.370;2023-02-25T10:53:00;97772.97;;;5.40;54.38
78741;BME280;68062;48.726;9.370;2023-02-25T10:55:44;97755.94;;;5.37;55.42
78741;BME280;68062;48.726;9.370;2023-02-25T10:58:37;97751.72;;;5.38;54.60
78741;BME280;68062;48.726;9.370;2023-02-25T11:01:08;97749.16;;;5.41;54.48
78741;BME280;68062;48.726;9.370;2023-02-25T11:03:44;97747.53;;;5.72;54.05
78741;BME280;68062;48.726;9.370;2023-02-25T11:06:18;97749.22;;;5.86;54.42
78741;BME280;68062;48.726;9.370;2023-02-25T11:08:45;97758.56;;;5.51;54.84
78741;BME280;68062;48.726;9.370;2023-02-25T11:11:17;97756.81;;;5.39;55.24
78741;BME280;68062;48.726;9.370;2023-02-25T11:13:59;97751.69;;;5.24;54.66
78741;BME280;68062;48.726;9.370;2023-02-25T11:16:27;97752.47;;;5.09;55.35
78741;BME280;68062;48.726;9.370;2023-02-25T11:18:56;97756.84;;;5.52;53.95
78741;BME280;68062;48.726;9.370;2023-02-25T11:21:31;97754.28;;;5.50;54.47
78741;BME280;68062;48.726;9.370;2023-02-25T11:24:00;97765.28;;;5.30;54.42
78741;BME280;68062;48.726;9.370;2023-02-25T11:26:31;97769.53;;;5.24;54.36
78741;BME280;68062;48.726;9.370;2023-02-25T11:29:00;97736.41;;;5.27;55.13
78741;BME280;68062;48.726;9.370;2023-02-25T11:31:33;97741.53;;;5.44;55.69
78741;BME280;68062;48.726;9.370;2023-02-25T11:34:04;97736.44;;;5.55;54.19
78741;BME280;68062;48.726;9.370;2023-02-25T11:36:35;97739.03;;;5.77;54.13
78741;BME280;68062;48.726;9.370;2023-02-25T11:39:14;97747.59;;;6.11;53.74
78741;BME280;68062;48.726;9.370;2023-02-25T11:41:42;97747.53;;;5.77;53.60
78741;BME280;68062;48.726;9.370;2023-02-25T11:44:25;97742.44;;;5.93;54.13
78741;BME280;68062;48.726;9.370;2023-02-25T11:46:57;97747.53;;;5.71;54.97
78741;BME280;68062;48.726;9.370;2023-02-25T11:49:40;97738.06;;;5.19;55.06
78741;BME280;68062;48.726;9.370;2023-02-25T11:52:18;97736.31;;;4.99;54.46
78741;BME280;68062;48.726;9.370;2023-02-25T11:54:55;97754.16;;;5.02;55.19
78741;BME280;68062;48.726;9.370;2023-02-25T11:57:32;97756.63;;;4.88;55.99
78741;BME280;68062;48.726;9.370;2023-02-25T12:00:17;97747.44;;;5.20;57.09
78741;BME280;68062;48.726;9.370;2023-02-25T12:02:59;97744.75;;;4.89;56.83
78741;BME280;68062;48.726;9.370;2023-02-25T12:05:48;97747.34;;;4.98;58.33
78741;BME280;68062;48.726;9.370;2023-02-25T12:08:34;97748.19;;;4.97;59.63
78741;BME280;68062;48.726;9.370;2023-02-25T12:20:52;97733.78;;;5.07;59.34
78741;BME280;68062;48.726;9.370;2023-02-25T12:26:35;97730.50;;;5.62;57.01
78741;BME280;68062;48.726;9.370;2023-02-25T12:29:20;97733.03;;;5.50;57.55
78741;BME280;68062;48.726;9.370;2023-02-25T12:32:06;97749.09;;;5.11;58.53
78741;BME280;68062;48.726;9.370;2023-02-25T12:34:50;97742.28;;;5.09;58.53
78741;BME280;68062;48.726;9.370;2023-02-25T12:37:48;97727.03;;;5.17;58.14
78741;BME280;68062;48.726;9.370;2023-02-25T12:40:35;97760.13;;;5.12;58.42
78741;BME280;68062;48.726;9.370;2023-02-25T12:43:20;97760.03;;;4.90;59.44
78741;BME280;68062;48.726;9.370;2023-02-25T12:46:02;97753.31;;;5.05;59.52
78741;BME280;68062;48.726;9.370;2023-02-25T12:52:04;97734.53;;;4.82;59.90
78741;BME280;68062;48.726;9.370;2023-02-25T12:55:03;97734.63;;;5.04;59.62
78741;BME280;68062;48.726;9.370;2023-02-25T12:57:42;97739.69;;;5.03;59.72
78741;BME280;68062;48.726;9.370;2023-02-25T13:00:39;97738.75;;;4.82;60.25
78741;BME280;68062;48.726;9.370;2023-02-25T13:03:18;97749.81;;;4.84;62.08
78741;BME280;68062;48.726;9.370;2023-02-25T13:05:59;97731.84;;;4.57;62.84
78741;BME280;68062;48.726;9.370;2023-02-25T13:08:56;97749.69;;;4.57;64.22
78741;BME280;68062;48.726;9.370;2023-02-25T13:11:35;97738.59;;;4.49;67.75
78741;BME280;68062;48.726;9.370;2023-02-25T13:14:18;97747.91;;;4.47;69.30
78741;BME280;68062;48.726;9.370;2023-02-25T13:17:11;97739.63;;;4.79;70.52
78741;BME280;68062;48.726;9.370;2023-02-25T13:19:59;97714.59;;;4.13;72.42
78741;BME280;68062;48.726;9.370;2023-02-25T13:22:45;97731.06;;;4.68;72.05
78741;BME280;68062;48.726;9.370;2023-02-25T13:25:26;97737.03;;;4.75;71.56
78741;BME280;68062;48.726;9.370;2023-02-25T13:28:20;97727.59;;;4.56;72.59
78741;BME280;68062;48.726;9.370;2023-02-25T13:30:55;97714.75;;;4.36;71.55
78741;BME280;68062;48.726;9.370;2023-02-25T13:33:40;97731.13;;;4.85;71.68
78741;BME280;68062;48.726;9.370;2023-02-25T13:36:25;97740.34;;;4.60;71.45
78741;BME280;68062;48.726;9.370;2023-02-25T13:39:13;97739.50;;;4.59;71.00
78741;BME280;68062;48.726;9.370;2023-02-25T13:42:03;97748.06;;;4.74;70.94
78741;BME280;68062;48.726;9.370;2023-02-25T13:44:51;97757.22;;;4.44;71.34
78741;BME280;68062;48.726;9.370;2023-02-25T13:47:47;97737.69;;;4.41;71.68
78741;BME280;68062;48.726;9.370;2023-02-25T13:50:33;97722.59;;;4.74;70.52
78741;BME280;68062;48.726;9.370;2023-02-25T13:53:34;97746.31;;;4.63;70.11
78741;BME280;68062;48.726;9.370;2023-02-25T13:56:18;97737.00;;;4.70;70.53
78741;BME280;68062;48.726;9.370;2023-02-25T13:59:03;97748.84;;;4.63;71.09
78741;BME280;68062;48.726;9.370;2023-02-25T14:01:43;97731.19;;;4.96;68.37
78741;BME280;68062;48.726;9.370;2023-02-25T14:04:34;97728.69;;;5.10;67.28
78741;BME280;68062;48.726;9.370;2023-02-25T14:07:12;97713.34;;;4.93;68.11
78741;BME280;68062;48.726;9.370;2023-02-25T14:09:49;97721.91;;;5.18;66.71
78741;BME280;68062;48.726;9.370;2023-02-25T14:12:29;97726.19;;;5.32;65.74
78741;BME280;68062;48.726;9.370;2023-02-25T14:15:31;97727.88;;;5.19;63.74
78741;BME280;68062;48.726;9.370;2023-02-25T14:18:31;97734.72;;;5.44;61.82
78741;BME280;68062;48.726;9.370;2023-02-25T14:21:27;97722.84;;;5.54;62.18
78741;BME280;68062;48.726;9.370;2023-02-25T14:24:03;97722.84;;;5.71;61.73
78741;BME280;68062;48.726;9.370;2023-02-25T14:26:38;97678.66;;;5.58;60.86
78741;BME280;68062;48.726;9.370;2023-02-25T14:29:16;97722.88;;;5.95;60.92
78741;BME280;68062;48.726;9.370;2023-02-25T14:32:03;97720.28;;;5.53;59.69
78741;BME280;68062;48.726;9.370;2023-02-25T14:34:44;97723.72;;;5.92;59.81
78741;BME280;68062;48.726;9.370;2023-02-25T14:37:24;97715.25;;;6.23;58.88
78741;BME280;68062;48.726;9.370;2023-02-25T14:40:16;97717.72;;;6.60;57.51
78741;BME280;68062;48.726;9.370;2023-02-25T14:43:02;97696.50;;;6.28;58.14
78741;BME280;68062;48.726;9.370;2023-02-25T14:45:37;97716.09;;;6.34;58.67